Time;durP1;ratioP1;P1;durP2;ratioP2;P2;SDS_P1;SDS_P2;PMS_P1;PMS_P2;Temp;Humidity;BMP_temperature;BMP_pressure;BME280_temperature;BME280_humidity;BME280_pressure;Samples;Min_cycle;Max_cycle;Signal;HPM_P1;HPM_P2
2022/12/28 00:01:22;;;;;;;;;;;27.10;97.60;;;;;;5056964;28;20697;-67
2022/12/28 00:03:49;;;;;;;;;;;27.20;97.20;;;;;;5048475;28;19928;-66
2022/12/28 00:06:16;;;;;;;;;;;27.30;97.40;;;;;;5036749;28;19962;-68
2022/12/28 00:08:43;;;;;;;;;;;27.10;97.80;;;;;;5047381;28;20382;-66
2022/12/28 00:11:13;;;;;;;;;;;27.20;97.30;;;;;;5044758;28;20005;-66
2022/12/28 00:13:40;;;;;;;;;;;27.20;97.20;;;;;;5038145;28;20357;-66
2022/12/28 00:16:08;;;;;;;;;;;27.00;97.60;;;;;;5036487;28;20173;-66
2022/12/28 00:18:35;;;;;;;;;;;27.10;97.60;;;;;;5057732;28;19999;-65
2022/12/28 00:21:03;;;;;;;;;;;27.30;97.50;;;;;;5058338;28;19923;-64
2022/12/28 00:23:30;;;;;;;;;;;27.40;97.00;;;;;;5057627;28;19912;-66
2022/12/28 00:26:04;;;;;;;;;;;27.30;96.60;;;;;;5058660;28;19991;-67
2022/12/28 00:28:31;;;;;;;;;;;27.40;97.30;;;;;;5054468;28;20358;-66
2022/12/28 00:30:58;;;;;;;;;;;27.60;96.50;;;;;;5046366;28;19920;-67
2022/12/28 00:33:24;;;;;;;;;;;27.60;96.70;;;;;;5055657;28;20630;-66
2022/12/28 00:35:54;;;;;;;;;;;27.60;96.30;;;;;;5058187;28;19986;-65
2022/12/28 00:38:21;;;;;;;;;;;27.50;96.40;;;;;;5056309;28;19905;-68
2022/12/28 00:40:48;;;;;;;;;;;27.80;96.40;;;;;;5058113;28;20281;-67
2022/12/28 00:43:14;;;;;;;;;;;28.00;96.00;;;;;;5044512;28;19974;-66
2022/12/28 00:45:45;;;;;;;;;;;28.20;95.70;;;;;;5036762;28;19913;-66
2022/12/28 00:48:12;;;;;;;;;;;28.40;95.20;;;;;;5035910;28;19974;-65
2022/12/28 00:50:38;;;;;;;;;;;28.40;94.70;;;;;;5037803;28;19923;-66
2022/12/28 00:53:05;;;;;;;;;;;28.50;94.70;;;;;;5037911;28;19909;-66
2022/12/28 00:55:35;;;;;;;;;;;28.60;94.30;;;;;;5036991;28;19909;-65
2022/12/28 00:58:01;;;;;;;;;;;28.40;94.50;;;;;;5055804;28;19919;-67
2022/12/28 01:00:28;;;;;;;;;;;28.60;94.60;;;;;;5055203;28;19939;-66
2022/12/28 01:02:55;;;;;;;;;;;28.70;94.30;;;;;;5057248;28;19917;-66
2022/12/28 01:05:22;;;;;;;;;;;28.70;94.60;;;;;;5055746;28;19912;-66
2022/12/28 01:07:48;;;;;;;;;;;28.90;94.50;;;;;;5056783;28;19981;-66
2022/12/28 01:10:15;;;;;;;;;;;28.90;94.00;;;;;;5047800;28;19920;-67
2022/12/28 01:12:42;;;;;;;;;;;28.90;93.80;;;;;;5037484;28;19948;-66
2022/12/28 01:15:09;;;;;;;;;;;29.00;94.20;;;;;;5037239;28;20361;-64
2022/12/28 01:17:36;;;;;;;;;;;28.90;93.30;;;;;;5037337;28;19909;-65
2022/12/28 01:20:03;;;;;;;;;;;28.90;94.00;;;;;;5036946;28;19909;-65
2022/12/28 01:22:30;;;;;;;;;;;29.10;93.50;;;;;;5044770;28;19932;-67
2022/12/28 01:24:57;;;;;;;;;;;29.20;93.20;;;;;;5057100;28;19931;-66
2022/12/28 01:27:23;;;;;;;;;;;29.00;93.80;;;;;;5055829;28;19908;-66
2022/12/28 01:29:50;;;;;;;;;;;29.20;93.30;;;;;;5056865;28;19916;-66
2022/12/28 01:32:16;;;;;;;;;;;29.40;93.20;;;;;;5056238;28;20277;-67
2022/12/28 01:34:43;;;;;;;;;;;29.60;93.00;;;;;;5057038;28;19920;-67
2022/12/28 01:37:10;;;;;;;;;;;29.50;92.70;;;;;;5043288;28;19920;-65
2022/12/28 01:39:37;;;;;;;;;;;29.30;92.80;;;;;;5038339;28;20310;-67
2022/12/28 01:42:03;;;;;;;;;;;29.40;92.60;;;;;;5046381;28;19924;-67
2022/12/28 01:44:39;;;;;;;;;;;29.60;92.30;;;;;;5044842;28;19959;-66
2022/12/28 01:47:08;;;;;;;;;;;29.70;92.50;;;;;;5046056;28;19938;-64
2022/12/28 01:49:55;;;;;;;;;;;29.80;92.10;;;;;;5042613;28;19916;-66
2022/12/28 01:52:22;;;;;;;;;;;29.80;92.50;;;;;;5047760;28;19916;-67
2022/12/28 01:54:51;;;;;;;;;;;29.90;92.30;;;;;;5045568;28;19920;-67
2022/12/28 01:57:20;;;;;;;;;;;30.10;91.90;;;;;;5044993;28;20373;-67
2022/12/28 01:59:51;;;;;;;;;;;30.10;91.70;;;;;;5044023;28;19956;-66
2022/12/28 02:02:19;;;;;;;;;;;30.00;91.80;;;;;;5043811;28;20402;-64
2022/12/28 02:04:46;;;;;;;;;;;30.10;91.80;;;;;;5051032;28;20348;-65
2022/12/28 02:07:17;;;;;;;;;;;30.20;91.40;;;;;;5047205;28;19966;-67
2022/12/28 02:09:44;;;;;;;;;;;30.20;91.40;;;;;;5038932;28;20169;-65
2022/12/28 02:12:14;;;;;;;;;;;30.00;91.40;;;;;;5047020;28;19908;-65
2022/12/28 02:14:42;;;;;;;;;;;29.70;91.70;;;;;;5045173;28;20007;-67
2022/12/28 02:17:09;;;;;;;;;;;29.80;91.80;;;;;;5041355;28;19913;-64
2022/12/28 02:19:40;;;;;;;;;;;30.20;91.90;;;;;;5043752;28;20123;-66
2022/12/28 02:22:35;;;;;;;;;;;30.60;91.60;;;;;;5042965;28;19928;-67
2022/12/28 02:25:01;;;;;;;;;;;30.70;90.50;;;;;;5040149;28;19962;-64
2022/12/28 02:27:46;;;;;;;;;;;30.40;90.40;;;;;;5038338;28;20000;-64
2022/12/28 02:30:14;;;;;;;;;;;30.50;90.10;;;;;;5049287;28;19967;-68
2022/12/28 02:33:12;;;;;;;;;;;30.10;90.80;;;;;;5039516;28;19971;-67
2022/12/28 02:35:52;;;;;;;;;;;30.10;90.50;;;;;;5034233;28;19921;-66
2022/12/28 02:38:28;;;;;;;;;;;30.00;90.60;;;;;;5055193;28;20400;-66
2022/12/28 02:41:02;;;;;;;;;;;30.00;91.00;;;;;;5054196;28;19916;-66
2022/12/28 02:43:31;;;;;;;;;;;30.10;90.80;;;;;;5056519;28;19966;-66
2022/12/28 02:52:03;;;;;;;;;;;30.60;90.50;;;;;;5039411;28;20047;-66
2022/12/28 02:57:46;;;;;;;;;;;30.40;90.20;;;;;;5038167;28;20405;-67
2022/12/28 03:00:17;;;;;;;;;;;30.60;89.20;;;;;;5042985;28;20456;-66
2022/12/28 03:02:43;;;;;;;;;;;30.90;88.70;;;;;;5055055;28;19932;-66
2022/12/28 03:05:14;;;;;;;;;;;31.10;88.10;;;;;;5057693;28;19908;-65
2022/12/28 03:08:18;;;;;;;;;;;30.80;88.20;;;;;;5037262;28;19974;-64
2022/12/28 03:10:51;;;;;;;;;;;31.20;87.70;;;;;;5042279;28;19922;-64
2022/12/28 03:13:41;;;;;;;;;;;31.40;87.50;;;;;;5057171;28;20412;-65
2022/12/28 03:16:11;;;;;;;;;;;31.70;84.70;;;;;;5058566;28;19973;-66
2022/12/28 03:32:31;;;;;;;;;;;34.40;78.30;;;;;;5040753;28;19982;-67
2022/12/28 03:34:58;;;;;;;;;;;34.40;76.80;;;;;;5044232;28;19932;-67
2022/12/28 03:37:29;;;;;;;;;;;34.40;77.00;;;;;;5038780;28;19998;-68
2022/12/28 03:39:56;;;;;;;;;;;34.80;75.80;;;;;;5039220;28;19966;-66
2022/12/28 03:45:34;;;;;;;;;;;34.90;75.80;;;;;;5054430;28;19919;-66
2022/12/28 03:48:02;;;;;;;;;;;35.20;74.60;;;;;;5057557;28;19916;-66
2022/12/28 03:50:29;;;;;;;;;;;34.90;75.10;;;;;;5048091;28;19923;-67
2022/12/28 03:52:57;;;;;;;;;;;35.30;74.60;;;;;;5037196;28;19919;-66
2022/12/28 03:55:24;;;;;;;;;;;35.60;74.40;;;;;;5037657;28;19919;-66
2022/12/28 03:57:51;;;;;;;;;;;36.00;73.90;;;;;;5036613;28;19909;-66
2022/12/28 04:00:17;;;;;;;;;;;36.50;72.40;;;;;;5043156;28;19913;-66
2022/12/28 04:02:44;;;;;;;;;;;36.20;72.30;;;;;;5036520;28;20262;-68
2022/12/28 04:05:11;;;;;;;;;;;35.60;73.70;;;;;;5049184;28;19924;-67
2022/12/28 04:07:37;;;;;;;;;;;35.60;74.20;;;;;;5047817;28;19915;-66
2022/12/28 04:10:04;;;;;;;;;;;36.00;73.20;;;;;;5040504;28;20297;-66
2022/12/28 04:12:31;;;;;;;;;;;36.20;73.00;;;;;;5043740;28;19913;-68
2022/12/28 04:14:57;;;;;;;;;;;36.60;71.10;;;;;;5043632;28;19921;-66
2022/12/28 04:17:24;;;;;;;;;;;35.80;71.70;;;;;;5047535;28;19913;-68
2022/12/28 04:19:50;;;;;;;;;;;35.70;72.10;;;;;;5053124;28;19913;-65
2022/12/28 04:22:17;;;;;;;;;;;35.70;71.20;;;;;;5040769;28;19916;-69
2022/12/28 04:24:44;;;;;;;;;;;35.50;72.40;;;;;;5045274;28;19912;-66
2022/12/28 04:27:10;;;;;;;;;;;36.00;71.70;;;;;;5054139;28;20311;-67
2022/12/28 04:29:37;;;;;;;;;;;36.20;70.80;;;;;;5037715;28;19955;-66
2022/12/28 04:32:04;;;;;;;;;;;36.70;70.20;;;;;;5036045;28;20686;-68
2022/12/28 04:34:30;;;;;;;;;;;36.70;70.60;;;;;;5036021;28;19967;-68
2022/12/28 04:36:57;;;;;;;;;;;37.20;70.10;;;;;;5036497;28;19909;-65
2022/12/28 04:39:24;;;;;;;;;;;36.90;70.00;;;;;;5044981;28;19916;-67
2022/12/28 04:41:50;;;;;;;;;;;36.60;71.20;;;;;;5035909;28;20285;-68
2022/12/28 04:44:17;;;;;;;;;;;37.60;69.60;;;;;;5034865;28;20319;-65
2022/12/28 04:46:44;;;;;;;;;;;37.10;70.30;;;;;;5036074;28;19913;-65
2022/12/28 04:49:10;;;;;;;;;;;36.70;69.40;;;;;;5037413;28;19912;-65
2022/12/28 04:51:37;;;;;;;;;;;36.60;69.80;;;;;;5035849;28;20235;-65
2022/12/28 04:54:04;;;;;;;;;;;36.70;69.90;;;;;;5054083;28;19913;-65
2022/12/28 04:56:31;;;;;;;;;;;36.10;69.70;;;;;;5053775;28;19916;-68
2022/12/28 04:58:59;;;;;;;;;;;36.70;69.20;;;;;;5042230;28;20361;-65
2022/12/28 05:01:25;;;;;;;;;;;36.80;68.00;;;;;;5037327;28;19929;-65
2022/12/28 05:03:53;;;;;;;;;;;36.90;68.40;;;;;;5043263;28;20529;-67
2022/12/28 05:06:20;;;;;;;;;;;36.70;69.50;;;;;;5040001;28;20266;-65
2022/12/28 05:08:48;;;;;;;;;;;36.40;69.20;;;;;;5040975;28;19913;-67
2022/12/28 05:11:16;;;;;;;;;;;36.20;69.40;;;;;;5043691;28;19917;-67
2022/12/28 05:13:43;;;;;;;;;;;36.20;69.40;;;;;;5044903;28;19912;-69
2022/12/28 05:16:11;;;;;;;;;;;36.60;68.70;;;;;;5042548;28;19958;-66
2022/12/28 05:18:38;;;;;;;;;;;36.10;69.90;;;;;;5045620;28;20667;-66
2022/12/28 05:21:04;;;;;;;;;;;35.80;70.30;;;;;;5045246;28;20377;-68
2022/12/28 05:23:32;;;;;;;;;;;35.90;70.20;;;;;;5044245;28;19912;-64
2022/12/28 05:25:58;;;;;;;;;;;35.20;72.00;;;;;;5045410;28;19920;-67
2022/12/28 05:28:25;;;;;;;;;;;35.00;71.90;;;;;;5041948;28;19974;-67
2022/12/28 05:30:52;;;;;;;;;;;34.70;72.70;;;;;;5045678;28;19908;-67
2022/12/28 05:33:19;;;;;;;;;;;34.80;72.70;;;;;;5042717;28;20365;-67
2022/12/28 05:35:45;;;;;;;;;;;34.40;73.10;;;;;;5042025;28;19948;-67
2022/12/28 05:38:12;;;;;;;;;;;34.50;73.90;;;;;;5037876;28;19925;-69
2022/12/28 05:40:39;;;;;;;;;;;34.80;73.00;;;;;;5042262;28;19912;-64
2022/12/28 05:43:05;;;;;;;;;;;34.70;73.40;;;;;;5045397;28;19917;-68
2022/12/28 05:45:32;;;;;;;;;;;34.20;73.90;;;;;;5044210;28;19909;-68
2022/12/28 05:47:59;;;;;;;;;;;33.80;75.00;;;;;;5043499;28;20019;-67
2022/12/28 05:50:25;;;;;;;;;;;33.70;75.10;;;;;;5043065;28;19912;-67
2022/12/28 05:52:52;;;;;;;;;;;33.30;76.00;;;;;;5045851;28;19915;-67
2022/12/28 05:55:18;;;;;;;;;;;32.30;78.80;;;;;;5043241;28;19913;-67
2022/12/28 05:57:45;;;;;;;;;;;31.80;79.40;;;;;;5043964;28;19916;-65
2022/12/28 06:00:12;;;;;;;;;;;31.40;80.70;;;;;;5044805;28;20400;-68
2022/12/28 06:02:38;;;;;;;;;;;30.80;82.80;;;;;;5042313;28;19974;-65
2022/12/28 06:05:05;;;;;;;;;;;30.30;85.50;;;;;;5044995;28;19913;-68
2022/12/28 06:07:32;;;;;;;;;;;30.10;86.70;;;;;;5046231;28;20003;-65
2022/12/28 06:09:59;;;;;;;;;;;30.00;87.30;;;;;;5042929;28;20381;-65
2022/12/28 06:12:25;;;;;;;;;;;29.90;87.10;;;;;;5036057;28;19952;-64
2022/12/28 06:14:52;;;;;;;;;;;29.80;87.30;;;;;;5036138;28;19909;-66
2022/12/28 06:17:18;;;;;;;;;;;29.40;88.40;;;;;;5035184;28;19913;-65
2022/12/28 06:19:45;;;;;;;;;;;29.50;88.20;;;;;;5034181;28;19908;-66
2022/12/28 06:22:12;;;;;;;;;;;29.20;88.70;;;;;;5035583;28;19967;-65
2022/12/28 06:24:38;;;;;;;;;;;29.10;89.70;;;;;;5034081;28;19913;-65
2022/12/28 06:27:05;;;;;;;;;;;29.20;89.20;;;;;;5035338;28;19913;-67
2022/12/28 06:29:32;;;;;;;;;;;28.90;90.10;;;;;;5034665;28;19962;-67
2022/12/28 06:32:00;;;;;;;;;;;29.00;90.40;;;;;;5035695;28;19935;-68
2022/12/28 06:34:26;;;;;;;;;;;28.80;90.10;;;;;;5035219;28;19921;-65
2022/12/28 06:36:55;;;;;;;;;;;28.60;90.90;;;;;;5034871;28;19924;-65
2022/12/28 06:39:22;;;;;;;;;;;28.70;90.90;;;;;;5034454;28;19913;-68
2022/12/28 06:41:48;;;;;;;;;;;28.60;90.60;;;;;;5034990;28;20057;-66
2022/12/28 06:44:15;;;;;;;;;;;28.50;91.10;;;;;;5035245;28;19913;-66
2022/12/28 06:46:42;;;;;;;;;;;28.40;91.50;;;;;;5036565;28;20345;-67
2022/12/28 06:49:08;;;;;;;;;;;28.50;91.50;;;;;;5032654;28;19909;-65
2022/12/28 06:51:39;;;;;;;;;;;28.30;91.60;;;;;;5035569;28;20341;-65
2022/12/28 06:54:05;;;;;;;;;;;28.20;91.90;;;;;;5033494;28;20274;-67
2022/12/28 06:56:33;;;;;;;;;;;28.10;92.30;;;;;;5035062;28;19952;-66
2022/12/28 06:59:00;;;;;;;;;;;28.00;92.70;;;;;;5035537;28;19915;-66
2022/12/28 07:01:28;;;;;;;;;;;27.90;92.50;;;;;;5033182;28;19917;-67
2022/12/28 07:03:56;;;;;;;;;;;27.70;92.90;;;;;;5035244;28;19939;-64
2022/12/28 07:06:24;;;;;;;;;;;27.60;93.20;;;;;;5033898;28;20067;-65
2022/12/28 07:08:51;;;;;;;;;;;27.50;93.50;;;;;;5039709;28;19995;-66
2022/12/28 07:11:19;;;;;;;;;;;27.60;93.70;;;;;;5055508;28;20447;-67
2022/12/28 07:13:46;;;;;;;;;;;27.60;93.50;;;;;;5056507;28;19909;-68
2022/12/28 07:16:17;;;;;;;;;;;27.60;93.70;;;;;;5054425;28;19916;-67
2022/12/28 07:18:44;;;;;;;;;;;27.70;93.70;;;;;;5058052;28;19916;-67
2022/12/28 07:21:16;;;;;;;;;;;27.50;94.00;;;;;;5055816;28;20033;-64
2022/12/28 07:23:43;;;;;;;;;;;27.30;93.90;;;;;;5058381;28;19916;-65
2022/12/28 07:26:10;;;;;;;;;;;27.20;94.30;;;;;;5058392;28;19920;-65
2022/12/28 07:28:38;;;;;;;;;;;27.10;94.80;;;;;;5057917;28;19912;-66
2022/12/28 07:31:06;;;;;;;;;;;27.10;94.90;;;;;;5059475;28;19908;-68
2022/12/28 07:33:33;;;;;;;;;;;27.00;94.90;;;;;;5057346;28;20408;-67
2022/12/28 07:35:59;;;;;;;;;;;27.00;95.40;;;;;;5059154;28;19912;-67
2022/12/28 07:38:26;;;;;;;;;;;27.00;95.40;;;;;;5057444;28;20398;-67
2022/12/28 07:41:00;;;;;;;;;;;26.90;95.60;;;;;;5058022;28;20007;-65
2022/12/28 07:43:27;;;;;;;;;;;26.70;96.00;;;;;;5057566;28;20372;-65
2022/12/28 07:46:01;;;;;;;;;;;26.50;96.60;;;;;;5059297;28;19919;-66
2022/12/28 07:48:31;;;;;;;;;;;26.40;97.00;;;;;;5057408;28;19909;-68
2022/12/28 07:51:04;;;;;;;;;;;26.40;97.30;;;;;;5059597;28;19908;-67
2022/12/28 07:53:30;;;;;;;;;;;26.40;97.60;;;;;;5057384;28;19908;-68
2022/12/28 07:55:58;;;;;;;;;;;26.30;97.80;;;;;;5059059;28;20384;-67
2022/12/28 07:58:24;;;;;;;;;;;26.20;98.50;;;;;;5057337;28;19909;-67
2022/12/28 08:00:52;;;;;;;;;;;26.20;98.50;;;;;;5054640;28;20007;-66
2022/12/28 08:03:19;;;;;;;;;;;26.10;98.70;;;;;;5049518;28;20647;-67
2022/12/28 08:05:45;;;;;;;;;;;26.00;99.10;;;;;;5056776;28;19908;-64
2022/12/28 08:08:12;;;;;;;;;;;25.90;99.70;;;;;;5058872;28;19932;-64
2022/12/28 08:10:39;;;;;;;;;;;25.90;99.90;;;;;;5049050;28;19909;-64
2022/12/28 08:13:05;;;;;;;;;;;25.70;99.90;;;;;;5038416;28;19908;-67
2022/12/28 08:15:32;;;;;;;;;;;25.60;99.90;;;;;;5042651;28;20299;-66
2022/12/28 08:17:58;;;;;;;;;;;25.50;99.90;;;;;;5055734;28;20334;-64
2022/12/28 08:20:25;;;;;;;;;;;25.50;99.90;;;;;;5049593;28;19909;-67
2022/12/28 08:22:52;;;;;;;;;;;25.50;99.90;;;;;;5037664;28;20154;-66
2022/12/28 08:25:19;;;;;;;;;;;25.40;99.90;;;;;;5055015;28;19917;-64
2022/12/28 08:27:45;;;;;;;;;;;25.40;99.90;;;;;;5048798;28;19955;-64
2022/12/28 08:30:12;;;;;;;;;;;25.30;99.90;;;;;;5037210;28;19963;-65
2022/12/28 08:32:39;;;;;;;;;;;25.30;99.90;;;;;;5035373;28;19920;-66
2022/12/28 08:35:07;;;;;;;;;;;25.10;99.90;;;;;;5037301;28;19981;-66
2022/12/28 08:37:33;;;;;;;;;;;25.10;99.90;;;;;;5036111;28;19909;-63
2022/12/28 08:40:00;;;;;;;;;;;24.90;99.90;;;;;;5042299;28;20272;-64
2022/12/28 08:42:27;;;;;;;;;;;24.90;99.90;;;;;;5033856;28;19928;-66
2022/12/28 08:44:58;;;;;;;;;;;24.90;99.90;;;;;;5036490;28;20201;-66
2022/12/28 08:47:25;;;;;;;;;;;24.80;99.90;;;;;;5037088;28;20358;-65
2022/12/28 08:49:51;;;;;;;;;;;24.70;99.90;;;;;;5036879;28;20011;-67
2022/12/28 08:52:18;;;;;;;;;;;24.70;99.90;;;;;;5038072;28;19908;-65
2022/12/28 08:54:45;;;;;;;;;;;24.70;99.90;;;;;;5035629;28;19913;-66
2022/12/28 08:57:11;;;;;;;;;;;24.60;99.90;;;;;;5050927;28;19916;-66
2022/12/28 08:59:38;;;;;;;;;;;24.50;99.90;;;;;;5035562;28;19909;-66
2022/12/28 09:02:05;;;;;;;;;;;24.40;99.90;;;;;;5041632;28;20369;-63
2022/12/28 09:04:31;;;;;;;;;;;24.30;99.90;;;;;;5054842;28;19908;-68
2022/12/28 09:06:58;;;;;;;;;;;24.30;99.90;;;;;;5055873;28;19912;-67
2022/12/28 09:09:24;;;;;;;;;;;24.30;99.90;;;;;;5051528;28;20533;-65
2022/12/28 09:11:51;;;;;;;;;;;24.30;99.90;;;;;;5039013;28;20655;-64
2022/12/28 09:14:18;;;;;;;;;;;24.20;99.90;;;;;;5036861;28;19909;-64
2022/12/28 09:16:44;;;;;;;;;;;24.20;99.90;;;;;;5035005;28;19916;-69
2022/12/28 09:19:13;;;;;;;;;;;24.20;99.90;;;;;;5036576;28;19909;-65
2022/12/28 09:21:39;;;;;;;;;;;24.20;99.90;;;;;;5034200;28;19921;-67
2022/12/28 09:24:07;;;;;;;;;;;24.20;99.90;;;;;;5035891;28;20035;-69
2022/12/28 09:26:37;;;;;;;;;;;24.20;99.90;;;;;;5040416;28;19913;-67
2022/12/28 09:29:05;;;;;;;;;;;24.20;99.90;;;;;;5055966;28;19959;-69
2022/12/28 09:31:34;;;;;;;;;;;24.20;99.90;;;;;;5040584;28;19909;-70
2022/12/28 09:34:01;;;;;;;;;;;24.20;99.90;;;;;;5035739;28;20163;-69
2022/12/28 09:36:32;;;;;;;;;;;24.10;99.90;;;;;;5044199;28;19939;-68
2022/12/28 09:38:59;;;;;;;;;;;24.10;99.90;;;;;;5036804;28;19912;-68
2022/12/28 09:41:44;;;;;;;;;;;24.10;99.90;;;;;;5036346;28;19912;-69
2022/12/28 09:44:11;;;;;;;;;;;24.10;99.90;;;;;;5059520;28;20087;-65
2022/12/28 09:46:49;;;;;;;;;;;24.00;99.90;;;;;;5073344;28;19991;-68
2022/12/28 09:49:17;;;;;;;;;;;24.00;99.90;;;;;;5074779;28;19908;-68
2022/12/28 09:52:04;;;;;;;;;;;24.00;99.90;;;;;;5041145;28;19917;-65
2022/12/28 09:54:31;;;;;;;;;;;24.00;99.90;;;;;;5033464;28;19931;-67
2022/12/28 09:56:57;;;;;;;;;;;23.90;99.90;;;;;;5033961;28;19913;-65
2022/12/28 09:59:25;;;;;;;;;;;23.90;99.90;;;;;;5034826;28;20318;-64
2022/12/28 10:01:56;;;;;;;;;;;23.90;99.90;;;;;;5033417;28;20700;-66
2022/12/28 10:04:23;;;;;;;;;;;23.90;99.90;;;;;;5035806;28;19908;-65
2022/12/28 10:06:49;;;;;;;;;;;23.80;99.90;;;;;;5034619;28;20380;-67
2022/12/28 10:09:25;;;;;;;;;;;23.80;99.90;;;;;;5035845;28;19973;-66
2022/12/28 10:11:51;;;;;;;;;;;23.90;99.90;;;;;;5034685;28;19975;-64
2022/12/28 10:14:35;;;;;;;;;;;23.90;99.90;;;;;;5036602;28;19944;-64
2022/12/28 10:17:04;;;;;;;;;;;23.90;99.90;;;;;;5035650;28;19909;-66
2022/12/28 10:19:30;;;;;;;;;;;24.00;99.90;;;;;;5036166;28;19916;-63
2022/12/28 10:22:05;;;;;;;;;;;23.90;99.90;;;;;;5033045;28;19923;-66
2022/12/28 10:24:32;;;;;;;;;;;23.90;99.90;;;;;;5036012;28;19962;-66
2022/12/28 10:27:00;;;;;;;;;;;23.90;99.90;;;;;;5033223;28;19913;-66
2022/12/28 10:29:27;;;;;;;;;;;24.00;99.90;;;;;;5036251;28;20286;-65
2022/12/28 10:32:00;;;;;;;;;;;24.00;99.90;;;;;;5038831;28;19939;-65
2022/12/28 10:34:27;;;;;;;;;;;24.00;99.90;;;;;;5042466;28;19921;-67
2022/12/28 10:36:54;;;;;;;;;;;24.00;99.90;;;;;;5042330;28;19920;-63
2022/12/28 10:39:26;;;;;;;;;;;24.00;99.90;;;;;;5055570;28;19915;-66
2022/12/28 10:41:53;;;;;;;;;;;24.00;99.90;;;;;;5043602;28;19931;-66
2022/12/28 10:44:24;;;;;;;;;;;24.00;99.90;;;;;;5058041;28;20395;-68
2022/12/28 10:47:01;;;;;;;;;;;24.10;99.90;;;;;;5057665;28;19908;-68
2022/12/28 10:49:31;;;;;;;;;;;24.00;99.90;;;;;;5059219;28;19960;-67
2022/12/28 10:52:00;;;;;;;;;;;24.00;99.90;;;;;;5038938;28;19916;-65
2022/12/28 10:54:26;;;;;;;;;;;24.00;99.90;;;;;;5038951;28;19948;-67
2022/12/28 10:56:53;;;;;;;;;;;24.00;99.90;;;;;;5037944;28;19909;-67
2022/12/28 10:59:30;;;;;;;;;;;24.00;99.90;;;;;;5039283;28;20266;-66
2022/12/28 11:02:16;;;;;;;;;;;23.90;99.90;;;;;;5040114;28;19927;-66
2022/12/28 11:04:54;;;;;;;;;;;23.90;99.90;;;;;;5050075;28;20525;-67
2022/12/28 11:07:36;;;;;;;;;;;23.90;99.90;;;;;;5049336;28;19908;-69
2022/12/28 11:10:23;;;;;;;;;;;23.80;99.90;;;;;;5039999;28;19920;-67
2022/12/28 11:12:51;;;;;;;;;;;23.90;99.90;;;;;;5037982;28;20263;-65
2022/12/28 11:15:20;;;;;;;;;;;24.00;99.90;;;;;;5038502;28;20311;-65
2022/12/28 11:17:57;;;;;;;;;;;23.90;99.90;;;;;;5038482;28;19916;-65
2022/12/28 11:20:36;;;;;;;;;;;23.90;99.90;;;;;;5038174;28;19920;-66
2022/12/28 11:23:06;;;;;;;;;;;23.80;99.90;;;;;;5036856;28;19923;-66
2022/12/28 11:25:33;;;;;;;;;;;23.80;99.90;;;;;;5039225;28;19956;-65
2022/12/28 11:28:04;;;;;;;;;;;23.80;99.90;;;;;;5037114;28;19909;-67
2022/12/28 11:30:31;;;;;;;;;;;23.80;99.90;;;;;;5038557;28;19909;-65
2022/12/28 11:32:58;;;;;;;;;;;23.70;99.90;;;;;;5036803;28;19913;-66
2022/12/28 11:35:30;;;;;;;;;;;23.80;99.90;;;;;;5039344;28;19920;-67
2022/12/28 11:38:01;;;;;;;;;;;23.70;99.90;;;;;;5036867;28;19913;-66
2022/12/28 11:40:42;;;;;;;;;;;23.60;99.90;;;;;;5042241;28;19931;-69
2022/12/28 11:43:41;;;;;;;;;;;23.60;99.90;;;;;;5056389;28;20624;-68
2022/12/28 11:46:20;;;;;;;;;;;23.50;99.90;;;;;;5054552;28;20262;-68
2022/12/28 11:48:49;;;;;;;;;;;23.50;99.90;;;;;;5058581;28;19955;-68
2022/12/28 11:51:17;;;;;;;;;;;23.50;99.90;;;;;;5044654;28;19908;-66
2022/12/28 11:53:44;;;;;;;;;;;23.50;99.90;;;;;;5038149;28;19991;-68
2022/12/28 11:56:16;;;;;;;;;;;23.50;99.90;;;;;;5036071;28;19917;-68
2022/12/28 11:58:43;;;;;;;;;;;23.50;99.90;;;;;;5038047;28;20027;-68
2022/12/28 12:01:32;;;;;;;;;;;23.50;99.90;;;;;;5039506;28;20315;-66
2022/12/28 12:03:58;;;;;;;;;;;23.50;99.90;;;;;;5055307;28;20007;-66
2022/12/28 12:06:44;;;;;;;;;;;23.50;99.90;;;;;;5058127;28;19913;-68
2022/12/28 12:09:22;;;;;;;;;;;23.50;99.90;;;;;;5056125;28;19908;-66
2022/12/28 12:11:49;;;;;;;;;;;23.50;99.90;;;;;;5040642;28;20039;-64
2022/12/28 12:14:17;;;;;;;;;;;23.50;99.90;;;;;;5035328;28;19916;-67
2022/12/28 12:16:49;;;;;;;;;;;23.50;99.90;;;;;;5036875;28;19909;-67
2022/12/28 12:19:24;;;;;;;;;;;23.50;99.90;;;;;;5036052;28;20563;-66
2022/12/28 12:21:59;;;;;;;;;;;23.60;99.90;;;;;;5038623;28;20272;-68
2022/12/28 12:24:31;;;;;;;;;;;23.40;99.90;;;;;;5038770;28;20383;-67
2022/12/28 12:27:03;;;;;;;;;;;23.50;99.90;;;;;;5037222;28;19909;-68
2022/12/28 12:29:35;;;;;;;;;;;23.50;99.90;;;;;;5038630;28;20068;-66
2022/12/28 12:32:05;;;;;;;;;;;23.40;99.90;;;;;;5036415;28;19991;-66
2022/12/28 12:34:38;;;;;;;;;;;23.40;99.90;;;;;;5037773;28;19921;-65
2022/12/28 12:37:14;;;;;;;;;;;23.30;99.90;;;;;;5036058;28;19916;-68
2022/12/28 12:39:50;;;;;;;;;;;23.30;99.90;;;;;;5037278;28;19909;-67
2022/12/28 12:42:28;;;;;;;;;;;23.30;99.90;;;;;;5035741;28;19921;-66
2022/12/28 12:45:03;;;;;;;;;;;23.30;99.90;;;;;;5038270;28;20281;-68
2022/12/28 12:47:48;;;;;;;;;;;23.30;99.90;;;;;;5039247;28;19909;-67
2022/12/28 12:50:30;;;;;;;;;;;23.40;99.90;;;;;;5036218;28;19999;-66
2022/12/28 12:53:36;;;;;;;;;;;23.30;99.90;;;;;;5037911;28;19956;-66
2022/12/28 12:56:10;;;;;;;;;;;23.40;99.90;;;;;;5034694;28;19920;-66
2022/12/28 12:58:52;;;;;;;;;;;23.40;99.90;;;;;;5034401;28;19909;-67
2022/12/28 13:01:22;;;;;;;;;;;23.30;99.90;;;;;;5034523;28;20002;-67
2022/12/28 13:03:52;;;;;;;;;;;23.30;99.90;;;;;;5037742;28;19912;-67
2022/12/28 13:06:20;;;;;;;;;;;23.30;99.90;;;;;;5035090;28;20357;-66
2022/12/28 13:08:49;;;;;;;;;;;23.30;99.90;;;;;;5037222;28;19924;-66
2022/12/28 13:11:18;;;;;;;;;;;23.30;99.90;;;;;;5036157;28;20000;-66
2022/12/28 13:13:46;;;;;;;;;;;23.30;99.90;;;;;;5037109;28;20358;-67
2022/12/28 13:16:21;;;;;;;;;;;23.40;99.90;;;;;;5035762;28;19916;-69
2022/12/28 13:18:54;;;;;;;;;;;23.40;99.90;;;;;;5037486;28;20377;-66
2022/12/28 13:21:21;;;;;;;;;;;23.40;99.90;;;;;;5035993;28;20030;-67
2022/12/28 13:23:48;;;;;;;;;;;23.40;99.90;;;;;;5037052;28;20285;-68
2022/12/28 13:26:15;;;;;;;;;;;23.40;99.90;;;;;;5036148;28;19951;-67
2022/12/28 13:28:49;;;;;;;;;;;23.40;99.90;;;;;;5036417;28;19913;-66
2022/12/28 13:31:21;;;;;;;;;;;23.30;99.90;;;;;;5035607;28;19909;-68
2022/12/28 13:34:13;;;;;;;;;;;23.40;99.90;;;;;;5036683;28;20321;-68
2022/12/28 13:36:49;;;;;;;;;;;23.30;99.90;;;;;;5035271;28;19915;-67
2022/12/28 13:39:17;;;;;;;;;;;23.30;99.90;;;;;;5035460;28;19935;-68
2022/12/28 13:41:48;;;;;;;;;;;23.30;99.90;;;;;;5035923;28;19916;-67
2022/12/28 13:44:20;;;;;;;;;;;23.30;99.90;;;;;;5034962;28;19913;-66
2022/12/28 13:46:50;;;;;;;;;;;23.30;99.90;;;;;;5036176;28;19995;-68
2022/12/28 13:49:18;;;;;;;;;;;23.30;99.90;;;;;;5035932;28;19913;-68
2022/12/28 13:51:45;;;;;;;;;;;23.20;99.90;;;;;;5035399;28;19970;-66
2022/12/28 13:54:12;;;;;;;;;;;23.20;99.90;;;;;;5036015;28;20388;-67
2022/12/28 13:56:40;;;;;;;;;;;23.20;99.90;;;;;;5036935;28;19909;-66
2022/12/28 13:59:08;;;;;;;;;;;23.20;99.90;;;;;;5036482;28;19912;-66
2022/12/28 14:01:37;;;;;;;;;;;23.10;99.90;;;;;;5035905;28;20543;-67
2022/12/28 14:04:06;;;;;;;;;;;23.10;99.90;;;;;;5035734;28;20328;-67
2022/12/28 14:06:33;;;;;;;;;;;23.10;99.90;;;;;;5035405;28;19919;-69
2022/12/28 14:09:00;;;;;;;;;;;23.00;99.90;;;;;;5035098;28;20008;-68
2022/12/28 14:11:28;;;;;;;;;;;23.00;99.90;;;;;;5035155;28;20281;-67
2022/12/28 14:13:55;;;;;;;;;;;22.90;99.90;;;;;;5035855;28;19962;-68
2022/12/28 14:16:22;;;;;;;;;;;22.90;99.90;;;;;;5035047;28;19930;-69
2022/12/28 14:18:49;;;;;;;;;;;22.90;99.90;;;;;;5035217;28;19975;-68
2022/12/28 14:21:15;;;;;;;;;;;22.80;99.90;;;;;;5036112;28;19912;-68
2022/12/28 14:23:42;;;;;;;;;;;22.80;99.90;;;;;;5036187;28;19909;-67
2022/12/28 14:26:17;;;;;;;;;;;22.80;99.90;;;;;;5035541;28;20549;-67
2022/12/28 14:28:44;;;;;;;;;;;22.90;99.90;;;;;;5036802;28;19916;-66
2022/12/28 14:31:12;;;;;;;;;;;22.90;99.90;;;;;;5036121;28;20472;-67
2022/12/28 14:33:53;;;;;;;;;;;22.90;99.90;;;;;;5035615;28;20564;-67
2022/12/28 14:36:21;;;;;;;;;;;23.00;99.90;;;;;;5035710;28;19959;-67
2022/12/28 14:38:51;;;;;;;;;;;23.00;99.90;;;;;;5038076;28;19944;-67
2022/12/28 14:41:20;;;;;;;;;;;22.90;99.90;;;;;;5037079;28;20332;-67
2022/12/28 14:43:51;;;;;;;;;;;22.90;99.90;;;;;;5037361;28;20448;-69
2022/12/28 14:46:27;;;;;;;;;;;22.90;99.90;;;;;;5035906;28;19916;-68
2022/12/28 14:48:54;;;;;;;;;;;22.90;99.90;;;;;;5035756;28;19999;-66
2022/12/28 14:51:21;;;;;;;;;;;22.90;99.90;;;;;;5036260;28;19909;-68
2022/12/28 14:54:07;;;;;;;;;;;22.80;99.90;;;;;;5036479;28;19955;-67
2022/12/28 14:56:34;;;;;;;;;;;22.80;99.90;;;;;;5034783;28;19909;-67